KSLC/SLC METAR and TAF weather

Enter ICAO airport designator
Station Type Date Time Source
KSLC METAR 2023/01/30 10:54 UTC NOAA

KSLC 301054Z 36003KT 10SM BKN039 M11/M16 A3010 RMK AO2 SLP231 T11111156 $


Station Type Date Time Source
KSLC Decoded METAR 2023/01/30 10:54 UTC NOAA

SALT LAKE CITY INTERNATIONAL AIRPORT , UT, United States (KSLC) 40-47N 111-58W 1286M
Jan 30, 2023 - 05:54 AM EST / 2023.01.30 1054 UTC
Wind: from the N (360 degrees) at 3 MPH (3 KT):0
Visibility: 10 mile(s):0
Sky conditions: mostly cloudy
Temperature: 12.0 F (-11.1 C)
Dew Point: 3.9 F (-15.6 C)
Relative Humidity: 69%
Pressure (altimeter): 30.1 in. Hg (1019 hPa)
ob: KSLC 301054Z 36003KT 10SM BKN039 M11/M16 A3010 RMK AO2 SLP231 T11111156
cycle: 11

Station Type Date Time Source
KSLC TAF 2023/01/30 09:15 UTC NOAA

TAF
AMD KSLC 300912Z 3009/3112 34005KT P6SM FEW050
FM310800 14003KT P6SM SKC

Example: see airport list